Terminal Aerodrome Forecast
Issued by NWS Topeka, KS

Home | Current Version | Previous Version | Text Only | Print | Product List | Glossary Off
Versions: 1 2 3 4 5 6 7 8 9 10 11 12 13 14 15 16 17 18 19 20 21 22 23 24

000
FTUS43 KTOP 230520
TAFTOP
TAF
KTOP 230520Z 2306/2406 16008KT P6SM FEW015 BKN150 WS013/20040KT
     FM231200 16009G18KT 6SM BR BKN009
     FM231400 17010G20KT P6SM BKN012
     FM231600 17010G20KT P6SM BKN025
     FM231800 18012G20KT P6SM SCT035=

USA.gov is the U.S. government's official web portal to all federal, state and local government web resources and services.